sensor_id;sensor_type;location;lat;lon;timestamp;P1;durP1;ratioP1;P2;durP2;ratioP2
45792;SDS011;31495;42.740;22.908;2023-04-03T00:00:10;7.53;;;3.20;;
45792;SDS011;31495;42.740;22.908;2023-04-03T00:01:10;6.63;;;3.10;;
45792;SDS011;31495;42.740;22.908;2023-04-03T00:02:10;11.48;;;4.47;;
45792;SDS011;31495;42.740;22.908;2023-04-03T00:03:09;7.90;;;4.05;;
45792;SDS011;31495;42.740;22.908;2023-04-03T00:04:09;9.50;;;4.20;;
45792;SDS011;31495;42.740;22.908;2023-04-03T00:05:08;10.85;;;5.38;;
45792;SDS011;31495;42.740;22.908;2023-04-03T00:06:08;7.20;;;4.32;;
45792;SDS011;31495;42.740;22.908;2023-04-03T00:07:10;8.43;;;3.65;;
45792;SDS011;31495;42.740;22.908;2023-04-03T00:08:11;7.30;;;2.90;;
45792;SDS011;31495;42.740;22.908;2023-04-03T00:09:11;8.02;;;3.03;;
45792;SDS011;31495;42.740;22.908;2023-04-03T00:10:10;6.68;;;3.22;;
45792;SDS011;31495;42.740;22.908;2023-04-03T00:11:11;5.68;;;2.88;;
45792;SDS011;31495;42.740;22.908;2023-04-03T00:12:11;4.88;;;2.40;;
45792;SDS011;31495;42.740;22.908;2023-04-03T00:13:11;6.03;;;2.42;;
45792;SDS011;31495;42.740;22.908;2023-04-03T00:14:10;6.45;;;3.05;;
45792;SDS011;31495;42.740;22.908;2023-04-03T00:15:10;5.40;;;2.15;;
45792;SDS011;31495;42.740;22.908;2023-04-03T00:16:10;7.07;;;3.10;;
45792;SDS011;31495;42.740;22.908;2023-04-03T00:17:10;5.82;;;2.88;;
45792;SDS011;31495;42.740;22.908;2023-04-03T00:18:10;9.63;;;3.90;;
45792;SDS011;31495;42.740;22.908;2023-04-03T00:19:10;5.25;;;2.22;;
45792;SDS011;31495;42.740;22.908;2023-04-03T00:20:11;8.10;;;1.95;;
45792;SDS011;31495;42.740;22.908;2023-04-03T00:21:12;6.18;;;1.63;;
45792;SDS011;31495;42.740;22.908;2023-04-03T00:22:12;5.63;;;2.25;;
45792;SDS011;31495;42.740;22.908;2023-04-03T00:23:11;4.60;;;2.00;;
45792;SDS011;31495;42.740;22.908;2023-04-03T00:24:11;6.65;;;2.42;;
45792;SDS011;31495;42.740;22.908;2023-04-03T00:25:10;4.32;;;1.98;;
45792;SDS011;31495;42.740;22.908;2023-04-03T00:26:10;4.50;;;2.50;;
45792;SDS011;31495;42.740;22.908;2023-04-03T00:27:09;9.75;;;3.63;;
45792;SDS011;31495;42.740;22.908;2023-04-03T00:28:10;5.90;;;2.97;;
45792;SDS011;31495;42.740;22.908;2023-04-03T00:29:10;11.35;;;4.13;;
45792;SDS011;31495;42.740;22.908;2023-04-03T00:30:10;7.03;;;3.53;;
45792;SDS011;31495;42.740;22.908;2023-04-03T00:31:14;6.65;;;3.38;;
45792;SDS011;31495;42.740;22.908;2023-04-03T00:32:15;4.82;;;2.63;;
45792;SDS011;31495;42.740;22.908;2023-04-03T00:33:14;4.85;;;2.42;;
45792;SDS011;31495;42.740;22.908;2023-04-03T00:34:14;11.55;;;3.35;;
45792;SDS011;31495;42.740;22.908;2023-04-03T00:35:13;8.85;;;3.97;;
45792;SDS011;31495;42.740;22.908;2023-04-03T00:36:14;8.18;;;3.92;;
45792;SDS011;31495;42.740;22.908;2023-04-03T00:37:14;6.97;;;4.05;;
45792;SDS011;31495;42.740;22.908;2023-04-03T00:38:14;10.90;;;3.42;;
45792;SDS011;31495;42.740;22.908;2023-04-03T00:39:13;9.43;;;4.25;;
45792;SDS011;31495;42.740;22.908;2023-04-03T00:40:14;7.55;;;4.60;;
45792;SDS011;31495;42.740;22.908;2023-04-03T00:41:15;7.25;;;3.65;;
45792;SDS011;31495;42.740;22.908;2023-04-03T00:42:14;10.95;;;4.57;;
45792;SDS011;31495;42.740;22.908;2023-04-03T00:43:20;9.57;;;4.95;;
45792;SDS011;31495;42.740;22.908;2023-04-03T00:45:43;16.08;;;6.57;;
45792;SDS011;31495;42.740;22.908;2023-04-03T00:46:45;10.45;;;5.22;;
45792;SDS011;31495;42.740;22.908;2023-04-03T00:47:44;11.00;;;4.93;;
45792;SDS011;31495;42.740;22.908;2023-04-03T00:48:45;8.85;;;3.00;;
45792;SDS011;31495;42.740;22.908;2023-04-03T00:49:45;4.55;;;2.83;;
45792;SDS011;31495;42.740;22.908;2023-04-03T00:50:45;6.45;;;3.13;;
45792;SDS011;31495;42.740;22.908;2023-04-03T00:51:45;3.88;;;2.03;;
45792;SDS011;31495;42.740;22.908;2023-04-03T00:52:45;5.40;;;2.78;;
45792;SDS011;31495;42.740;22.908;2023-04-03T00:53:53;6.07;;;2.38;;
45792;SDS011;31495;42.740;22.908;2023-04-03T00:54:58;4.95;;;2.47;;
45792;SDS011;31495;42.740;22.908;2023-04-03T00:56:01;6.45;;;3.00;;
45792;SDS011;31495;42.740;22.908;2023-04-03T00:57:08;8.40;;;3.30;;
45792;SDS011;31495;42.740;22.908;2023-04-03T00:58:09;7.28;;;2.95;;
45792;SDS011;31495;42.740;22.908;2023-04-03T00:59:15;10.82;;;5.22;;
45792;SDS011;31495;42.740;22.908;2023-04-03T01:00:18;10.73;;;5.20;;
45792;SDS011;31495;42.740;22.908;2023-04-03T01:01:22;12.52;;;5.68;;
45792;SDS011;31495;42.740;22.908;2023-04-03T01:02:24;17.02;;;6.20;;
45792;SDS011;31495;42.740;22.908;2023-04-03T01:03:24;15.15;;;7.95;;
45792;SDS011;31495;42.740;22.908;2023-04-03T01:04:28;18.15;;;6.75;;
45792;SDS011;31495;42.740;22.908;2023-04-03T01:05:30;10.13;;;5.13;;
45792;SDS011;31495;42.740;22.908;2023-04-03T01:06:30;9.65;;;5.15;;
45792;SDS011;31495;42.740;22.908;2023-04-03T01:07:34;10.57;;;5.15;;
45792;SDS011;31495;42.740;22.908;2023-04-03T01:08:36;8.88;;;4.45;;
45792;SDS011;31495;42.740;22.908;2023-04-03T01:09:35;11.30;;;5.40;;
45792;SDS011;31495;42.740;22.908;2023-04-03T01:10:36;9.70;;;5.22;;
45792;SDS011;31495;42.740;22.908;2023-04-03T01:11:36;10.35;;;5.05;;
45792;SDS011;31495;42.740;22.908;2023-04-03T01:12:38;11.48;;;6.05;;
45792;SDS011;31495;42.740;22.908;2023-04-03T01:13:39;11.82;;;5.35;;
45792;SDS011;31495;42.740;22.908;2023-04-03T01:14:39;9.75;;;4.55;;
45792;SDS011;31495;42.740;22.908;2023-04-03T01:15:39;12.25;;;4.65;;
45792;SDS011;31495;42.740;22.908;2023-04-03T01:16:39;9.20;;;4.40;;
45792;SDS011;31495;42.740;22.908;2023-04-03T01:18:43;7.68;;;4.22;;
45792;SDS011;31495;42.740;22.908;2023-04-03T01:22:17;9.90;;;4.70;;
45792;SDS011;31495;42.740;22.908;2023-04-03T01:23:27;11.40;;;5.63;;
45792;SDS011;31495;42.740;22.908;2023-04-03T01:24:49;16.90;;;6.97;;
45792;SDS011;31495;42.740;22.908;2023-04-03T01:25:52;14.98;;;6.10;;
45792;SDS011;31495;42.740;22.908;2023-04-03T01:26:53;15.40;;;7.35;;
45792;SDS011;31495;42.740;22.908;2023-04-03T01:27:52;10.10;;;4.90;;
45792;SDS011;31495;42.740;22.908;2023-04-03T01:28:53;10.07;;;4.95;;
45792;SDS011;31495;42.740;22.908;2023-04-03T01:29:53;10.13;;;4.22;;
45792;SDS011;31495;42.740;22.908;2023-04-03T01:32:18;8.75;;;3.63;;
45792;SDS011;31495;42.740;22.908;2023-04-03T01:33:17;10.80;;;4.90;;
45792;SDS011;31495;42.740;22.908;2023-04-03T01:34:17;9.75;;;4.88;;
45792;SDS011;31495;42.740;22.908;2023-04-03T01:35:16;10.55;;;5.00;;
45792;SDS011;31495;42.740;22.908;2023-04-03T01:36:20;11.43;;;4.20;;
45792;SDS011;31495;42.740;22.908;2023-04-03T01:37:23;8.48;;;3.40;;
45792;SDS011;31495;42.740;22.908;2023-04-03T01:38:22;6.13;;;3.33;;
45792;SDS011;31495;42.740;22.908;2023-04-03T01:39:22;4.70;;;2.63;;
45792;SDS011;31495;42.740;22.908;2023-04-03T01:40:21;8.68;;;3.03;;
45792;SDS011;31495;42.740;22.908;2023-04-03T01:41:21;6.07;;;3.15;;
45792;SDS011;31495;42.740;22.908;2023-04-03T01:42:21;5.43;;;2.13;;
45792;SDS011;31495;42.740;22.908;2023-04-03T01:43:20;9.20;;;2.55;;
45792;SDS011;31495;42.740;22.908;2023-04-03T01:44:20;5.30;;;2.17;;
45792;SDS011;31495;42.740;22.908;2023-04-03T01:45:20;3.97;;;1.65;;
45792;SDS011;31495;42.740;22.908;2023-04-03T01:46:20;3.88;;;1.90;;
45792;SDS011;31495;42.740;22.908;2023-04-03T01:47:19;3.38;;;1.30;;
45792;SDS011;31495;42.740;22.908;2023-04-03T01:48:19;4.05;;;2.08;;
45792;SDS011;31495;42.740;22.908;2023-04-03T01:49:18;3.17;;;1.85;;
45792;SDS011;31495;42.740;22.908;2023-04-03T01:50:17;5.43;;;2.30;;
45792;SDS011;31495;42.740;22.908;2023-04-03T01:51:17;5.60;;;2.42;;
45792;SDS011;31495;42.740;22.908;2023-04-03T01:52:16;6.50;;;3.58;;
45792;SDS011;31495;42.740;22.908;2023-04-03T01:53:16;7.43;;;3.38;;
45792;SDS011;31495;42.740;22.908;2023-04-03T01:54:15;5.78;;;2.60;;
45792;SDS011;31495;42.740;22.908;2023-04-03T01:55:15;6.05;;;3.45;;
45792;SDS011;31495;42.740;22.908;2023-04-03T01:56:14;8.00;;;4.45;;
45792;SDS011;31495;42.740;22.908;2023-04-03T01:57:14;5.95;;;2.92;;
45792;SDS011;31495;42.740;22.908;2023-04-03T01:58:14;4.65;;;2.20;;
45792;SDS011;31495;42.740;22.908;2023-04-03T01:59:13;5.35;;;2.40;;
45792;SDS011;31495;42.740;22.908;2023-04-03T02:00:15;4.30;;;2.50;;
45792;SDS011;31495;42.740;22.908;2023-04-03T02:01:15;7.35;;;2.83;;
45792;SDS011;31495;42.740;22.908;2023-04-03T02:02:16;9.80;;;5.55;;
45792;SDS011;31495;42.740;22.908;2023-04-03T02:03:16;9.93;;;5.15;;
45792;SDS011;31495;42.740;22.908;2023-04-03T02:04:16;7.10;;;3.00;;
45792;SDS011;31495;42.740;22.908;2023-04-03T02:05:15;2.65;;;1.20;;
45792;SDS011;31495;42.740;22.908;2023-04-03T02:06:15;2.72;;;1.20;;
45792;SDS011;31495;42.740;22.908;2023-04-03T02:07:14;3.67;;;1.73;;
45792;SDS011;31495;42.740;22.908;2023-04-03T02:08:14;6.43;;;2.85;;
45792;SDS011;31495;42.740;22.908;2023-04-03T02:09:14;6.32;;;2.55;;
45792;SDS011;31495;42.740;22.908;2023-04-03T02:10:13;5.60;;;2.38;;
45792;SDS011;31495;42.740;22.908;2023-04-03T02:11:13;6.68;;;2.67;;
45792;SDS011;31495;42.740;22.908;2023-04-03T02:12:13;3.95;;;1.75;;
45792;SDS011;31495;42.740;22.908;2023-04-03T02:13:13;5.72;;;2.58;;
45792;SDS011;31495;42.740;22.908;2023-04-03T02:14:12;3.72;;;2.30;;
45792;SDS011;31495;42.740;22.908;2023-04-03T02:15:11;3.83;;;1.42;;
45792;SDS011;31495;42.740;22.908;2023-04-03T02:16:11;3.92;;;1.88;;
45792;SDS011;31495;42.740;22.908;2023-04-03T02:17:11;5.60;;;2.00;;
45792;SDS011;31495;42.740;22.908;2023-04-03T02:18:11;4.40;;;2.13;;
45792;SDS011;31495;42.740;22.908;2023-04-03T02:19:11;5.18;;;2.50;;
45792;SDS011;31495;42.740;22.908;2023-04-03T02:20:11;7.55;;;3.08;;
45792;SDS011;31495;42.740;22.908;2023-04-03T02:21:11;5.95;;;3.00;;
45792;SDS011;31495;42.740;22.908;2023-04-03T02:22:10;6.50;;;3.28;;
45792;SDS011;31495;42.740;22.908;2023-04-03T02:23:10;7.10;;;3.13;;
45792;SDS011;31495;42.740;22.908;2023-04-03T02:24:09;4.72;;;2.90;;
45792;SDS011;31495;42.740;22.908;2023-04-03T02:25:09;8.05;;;3.42;;
45792;SDS011;31495;42.740;22.908;2023-04-03T02:26:10;5.78;;;3.08;;
45792;SDS011;31495;42.740;22.908;2023-04-03T02:27:12;5.82;;;2.83;;
45792;SDS011;31495;42.740;22.908;2023-04-03T02:28:11;6.30;;;3.17;;
45792;SDS011;31495;42.740;22.908;2023-04-03T02:29:10;7.32;;;3.35;;
45792;SDS011;31495;42.740;22.908;2023-04-03T02:30:10;7.32;;;3.35;;
45792;SDS011;31495;42.740;22.908;2023-04-03T02:31:10;6.40;;;3.13;;
45792;SDS011;31495;42.740;22.908;2023-04-03T02:32:10;7.18;;;3.20;;
45792;SDS011;31495;42.740;22.908;2023-04-03T02:33:10;6.78;;;2.72;;
45792;SDS011;31495;42.740;22.908;2023-04-03T02:34:09;5.72;;;2.40;;
45792;SDS011;31495;42.740;22.908;2023-04-03T02:35:09;5.68;;;2.97;;
45792;SDS011;31495;42.740;22.908;2023-04-03T02:36:10;3.88;;;1.63;;
45792;SDS011;31495;42.740;22.908;2023-04-03T02:37:09;3.85;;;2.05;;
45792;SDS011;31495;42.740;22.908;2023-04-03T02:38:09;4.32;;;2.70;;
45792;SDS011;31495;42.740;22.908;2023-04-03T02:39:08;5.72;;;1.98;;
45792;SDS011;31495;42.740;22.908;2023-04-03T02:40:09;5.68;;;2.20;;
45792;SDS011;31495;42.740;22.908;2023-04-03T02:41:11;10.10;;;3.97;;
45792;SDS011;31495;42.740;22.908;2023-04-03T02:42:11;11.50;;;3.78;;
45792;SDS011;31495;42.740;22.908;2023-04-03T02:43:10;2.15;;;1.10;;
45792;SDS011;31495;42.740;22.908;2023-04-03T02:44:10;3.42;;;1.70;;
45792;SDS011;31495;42.740;22.908;2023-04-03T02:45:10;5.00;;;1.88;;
45792;SDS011;31495;42.740;22.908;2023-04-03T02:46:10;4.70;;;2.08;;
45792;SDS011;31495;42.740;22.908;2023-04-03T02:47:09;6.10;;;2.45;;
45792;SDS011;31495;42.740;22.908;2023-04-03T02:48:09;3.67;;;1.80;;
45792;SDS011;31495;42.740;22.908;2023-04-03T02:49:08;5.88;;;2.58;;
45792;SDS011;31495;42.740;22.908;2023-04-03T02:50:08;5.97;;;3.10;;
45792;SDS011;31495;42.740;22.908;2023-04-03T02:51:08;5.25;;;1.98;;
45792;SDS011;31495;42.740;22.908;2023-04-03T02:52:07;4.28;;;2.20;;
45792;SDS011;31495;42.740;22.908;2023-04-03T02:53:06;4.45;;;2.53;;
45792;SDS011;31495;42.740;22.908;2023-04-03T02:54:06;4.90;;;2.70;;
45792;SDS011;31495;42.740;22.908;2023-04-03T02:55:06;5.43;;;2.90;;
45792;SDS011;31495;42.740;22.908;2023-04-03T02:56:06;4.68;;;2.15;;
45792;SDS011;31495;42.740;22.908;2023-04-03T02:57:05;13.77;;;3.30;;
45792;SDS011;31495;42.740;22.908;2023-04-03T02:58:08;8.98;;;4.15;;
45792;SDS011;31495;42.740;22.908;2023-04-03T02:59:07;9.48;;;5.38;;
45792;SDS011;31495;42.740;22.908;2023-04-03T03:00:07;10.88;;;5.63;;
45792;SDS011;31495;42.740;22.908;2023-04-03T03:01:08;11.70;;;5.70;;
45792;SDS011;31495;42.740;22.908;2023-04-03T03:02:08;16.50;;;6.88;;
45792;SDS011;31495;42.740;22.908;2023-04-03T03:03:08;13.13;;;5.75;;
45792;SDS011;31495;42.740;22.908;2023-04-03T03:04:07;11.85;;;6.03;;
45792;SDS011;31495;42.740;22.908;2023-04-03T03:05:07;7.28;;;4.22;;
45792;SDS011;31495;42.740;22.908;2023-04-03T03:06:08;11.02;;;4.18;;
45792;SDS011;31495;42.740;22.908;2023-04-03T03:07:10;14.50;;;7.25;;
45792;SDS011;31495;42.740;22.908;2023-04-03T03:08:10;9.80;;;5.28;;
45792;SDS011;31495;42.740;22.908;2023-04-03T03:09:09;10.65;;;4.47;;
45792;SDS011;31495;42.740;22.908;2023-04-03T03:10:09;8.45;;;4.85;;
45792;SDS011;31495;42.740;22.908;2023-04-03T03:11:09;9.98;;;5.93;;
45792;SDS011;31495;42.740;22.908;2023-04-03T03:12:09;13.38;;;6.13;;
45792;SDS011;31495;42.740;22.908;2023-04-03T03:13:08;11.77;;;6.07;;
45792;SDS011;31495;42.740;22.908;2023-04-03T03:14:08;14.93;;;7.45;;
45792;SDS011;31495;42.740;22.908;2023-04-03T03:15:07;10.98;;;6.10;;
45792;SDS011;31495;42.740;22.908;2023-04-03T03:16:07;15.18;;;7.25;;
45792;SDS011;31495;42.740;22.908;2023-04-03T03:17:07;14.90;;;8.00;;
45792;SDS011;31495;42.740;22.908;2023-04-03T03:18:06;18.35;;;9.45;;
45792;SDS011;31495;42.740;22.908;2023-04-03T03:19:06;18.58;;;9.15;;
45792;SDS011;31495;42.740;22.908;2023-04-03T03:20:06;19.38;;;9.63;;
45792;SDS011;31495;42.740;22.908;2023-04-03T03:21:06;21.10;;;9.48;;
45792;SDS011;31495;42.740;22.908;2023-04-03T03:22:05;19.80;;;8.50;;
45792;SDS011;31495;42.740;22.908;2023-04-03T03:23:05;21.35;;;10.43;;
45792;SDS011;31495;42.740;22.908;2023-04-03T03:24:05;20.63;;;10.10;;
45792;SDS011;31495;42.740;22.908;2023-04-03T03:25:05;23.23;;;10.30;;
45792;SDS011;31495;42.740;22.908;2023-04-03T03:26:06;20.67;;;10.32;;
45792;SDS011;31495;42.740;22.908;2023-04-03T03:27:07;16.58;;;8.55;;
45792;SDS011;31495;42.740;22.908;2023-04-03T03:28:07;20.05;;;8.73;;
45792;SDS011;31495;42.740;22.908;2023-04-03T03:29:07;18.17;;;8.90;;
45792;SDS011;31495;42.740;22.908;2023-04-03T03:30:06;20.40;;;9.25;;
45792;SDS011;31495;42.740;22.908;2023-04-03T03:31:07;24.23;;;10.27;;
45792;SDS011;31495;42.740;22.908;2023-04-03T03:32:07;22.17;;;8.88;;
45792;SDS011;31495;42.740;22.908;2023-04-03T03:33:07;20.20;;;8.93;;
45792;SDS011;31495;42.740;22.908;2023-04-03T03:34:06;16.73;;;7.88;;
45792;SDS011;31495;42.740;22.908;2023-04-03T03:35:06;16.75;;;7.97;;
45792;SDS011;31495;42.740;22.908;2023-04-03T03:36:06;18.83;;;8.95;;
45792;SDS011;31495;42.740;22.908;2023-04-03T03:37:06;24.38;;;8.52;;
45792;SDS011;31495;42.740;22.908;2023-04-03T03:38:05;6.72;;;4.43;;
45792;SDS011;31495;42.740;22.908;2023-04-03T03:39:05;9.63;;;5.10;;
45792;SDS011;31495;42.740;22.908;2023-04-03T03:40:04;10.13;;;5.13;;
45792;SDS011;31495;42.740;22.908;2023-04-03T03:41:04;5.65;;;3.83;;
45792;SDS011;31495;42.740;22.908;2023-04-03T03:42:04;7.57;;;4.68;;
45792;SDS011;31495;42.740;22.908;2023-04-03T03:43:04;8.25;;;4.38;;
45792;SDS011;31495;42.740;22.908;2023-04-03T03:44:04;18.05;;;8.50;;
45792;SDS011;31495;42.740;22.908;2023-04-03T03:45:03;18.00;;;10.20;;
45792;SDS011;31495;42.740;22.908;2023-04-03T03:46:04;28.30;;;13.60;;
45792;SDS011;31495;42.740;22.908;2023-04-03T03:47:04;23.83;;;13.13;;
45792;SDS011;31495;42.740;22.908;2023-04-03T03:48:05;19.40;;;9.88;;
45792;SDS011;31495;42.740;22.908;2023-04-03T03:49:04;17.40;;;9.77;;
45792;SDS011;31495;42.740;22.908;2023-04-03T03:50:04;17.10;;;9.07;;
45792;SDS011;31495;42.740;22.908;2023-04-03T03:51:04;18.20;;;9.20;;
45792;SDS011;31495;42.740;22.908;2023-04-03T03:52:04;13.68;;;7.80;;
45792;SDS011;31495;42.740;22.908;2023-04-03T03:53:04;9.85;;;6.72;;
45792;SDS011;31495;42.740;22.908;2023-04-03T03:54:04;14.75;;;8.10;;
45792;SDS011;31495;42.740;22.908;2023-04-03T03:55:04;15.05;;;8.20;;
45792;SDS011;31495;42.740;22.908;2023-04-03T03:56:04;19.00;;;9.05;;
45792;SDS011;31495;42.740;22.908;2023-04-03T03:57:04;16.25;;;7.95;;
45792;SDS011;31495;42.740;22.908;2023-04-03T03:58:04;13.82;;;8.00;;
45792;SDS011;31495;42.740;22.908;2023-04-03T03:59:03;13.48;;;8.27;;
45792;SDS011;31495;42.740;22.908;2023-04-03T04:00:03;16.05;;;9.85;;
45792;SDS011;31495;42.740;22.908;2023-04-03T04:01:03;15.68;;;10.35;;
45792;SDS011;31495;42.740;22.908;2023-04-03T04:02:04;17.13;;;10.93;;
45792;SDS011;31495;42.740;22.908;2023-04-03T04:03:04;18.23;;;9.82;;
45792;SDS011;31495;42.740;22.908;2023-04-03T04:04:04;14.85;;;9.60;;
45792;SDS011;31495;42.740;22.908;2023-04-03T04:05:03;15.60;;;8.63;;
45792;SDS011;31495;42.740;22.908;2023-04-03T04:06:03;11.93;;;9.02;;
45792;SDS011;31495;42.740;22.908;2023-04-03T04:07:03;17.90;;;10.68;;
45792;SDS011;31495;42.740;22.908;2023-04-03T04:08:03;14.25;;;9.93;;
45792;SDS011;31495;42.740;22.908;2023-04-03T04:09:03;14.88;;;8.80;;
45792;SDS011;31495;42.740;22.908;2023-04-03T04:10:02;12.80;;;7.88;;
45792;SDS011;31495;42.740;22.908;2023-04-03T04:11:02;13.25;;;7.50;;
45792;SDS011;31495;42.740;22.908;2023-04-03T04:12:02;14.25;;;8.18;;
45792;SDS011;31495;42.740;22.908;2023-04-03T04:13:01;12.57;;;8.25;;
45792;SDS011;31495;42.740;22.908;2023-04-03T04:14:01;14.52;;;8.68;;
45792;SDS011;31495;42.740;22.908;2023-04-03T04:15:01;15.23;;;7.68;;
45792;SDS011;31495;42.740;22.908;2023-04-03T04:16:01;17.20;;;9.65;;
45792;SDS011;31495;42.740;22.908;2023-04-03T04:17:00;15.65;;;7.53;;
45792;SDS011;31495;42.740;22.908;2023-04-03T04:18:01;11.52;;;7.75;;
45792;SDS011;31495;42.740;22.908;2023-04-03T04:19:01;19.20;;;7.95;;
45792;SDS011;31495;42.740;22.908;2023-04-03T04:20:01;12.77;;;7.75;;
45792;SDS011;31495;42.740;22.908;2023-04-03T04:21:02;14.20;;;8.65;;
45792;SDS011;31495;42.740;22.908;2023-04-03T04:22:01;11.52;;;7.07;;
45792;SDS011;31495;42.740;22.908;2023-04-03T04:23:01;13.98;;;8.07;;
45792;SDS011;31495;42.740;22.908;2023-04-03T04:24:00;11.32;;;7.38;;
45792;SDS011;31495;42.740;22.908;2023-04-03T04:24:59;10.93;;;7.85;;
45792;SDS011;31495;42.740;22.908;2023-04-03T04:25:59;11.02;;;5.72;;
45792;SDS011;31495;42.740;22.908;2023-04-03T04:26:58;8.57;;;5.20;;
45792;SDS011;31495;42.740;22.908;2023-04-03T04:27:58;13.07;;;5.75;;
45792;SDS011;31495;42.740;22.908;2023-04-03T04:28:57;8.15;;;5.60;;
45792;SDS011;31495;42.740;22.908;2023-04-03T04:29:56;9.98;;;6.43;;
45792;SDS011;31495;42.740;22.908;2023-04-03T04:30:56;13.57;;;7.35;;
45792;SDS011;31495;42.740;22.908;2023-04-03T04:31:55;14.55;;;7.43;;
45792;SDS011;31495;42.740;22.908;2023-04-03T04:32:55;14.52;;;7.82;;
45792;SDS011;31495;42.740;22.908;2023-04-03T04:33:55;15.15;;;8.30;;
45792;SDS011;31495;42.740;22.908;2023-04-03T04:34:54;12.63;;;8.55;;
45792;SDS011;31495;42.740;22.908;2023-04-03T04:35:54;12.27;;;7.65;;
45792;SDS011;31495;42.740;22.908;2023-04-03T04:36:53;14.00;;;8.30;;
45792;SDS011;31495;42.740;22.908;2023-04-03T04:37:53;14.30;;;8.63;;
45792;SDS011;31495;42.740;22.908;2023-04-03T04:38:52;26.13;;;10.05;;
45792;SDS011;31495;42.740;22.908;2023-04-03T04:39:52;33.28;;;19.60;;
45792;SDS011;31495;42.740;22.908;2023-04-03T04:40:51;29.15;;;17.55;;
45792;SDS011;31495;42.740;22.908;2023-04-03T04:41:50;33.15;;;16.40;;
45792;SDS011;31495;42.740;22.908;2023-04-03T04:42:50;23.75;;;15.63;;
45792;SDS011;31495;42.740;22.908;2023-04-03T04:43:51;23.80;;;15.90;;
45792;SDS011;31495;42.740;22.908;2023-04-03T04:44:51;25.33;;;15.20;;
45792;SDS011;31495;42.740;22.908;2023-04-03T04:45:59;23.23;;;14.85;;
45792;SDS011;31495;42.740;22.908;2023-04-03T04:47:03;33.47;;;20.20;;
45792;SDS011;31495;42.740;22.908;2023-04-03T04:48:02;32.83;;;19.13;;
45792;SDS011;31495;42.740;22.908;2023-04-03T04:49:02;29.00;;;17.25;;
45792;SDS011;31495;42.740;22.908;2023-04-03T04:50:02;23.23;;;14.85;;
45792;SDS011;31495;42.740;22.908;2023-04-03T04:51:02;23.88;;;13.93;;
45792;SDS011;31495;42.740;22.908;2023-04-03T04:52:02;25.17;;;15.18;;
45792;SDS011;31495;42.740;22.908;2023-04-03T04:53:01;27.20;;;14.57;;
45792;SDS011;31495;42.740;22.908;2023-04-03T04:54:01;20.63;;;13.32;;
45792;SDS011;31495;42.740;22.908;2023-04-03T04:55:00;19.67;;;12.63;;
45792;SDS011;31495;42.740;22.908;2023-04-03T04:56:00;19.33;;;13.10;;
45792;SDS011;31495;42.740;22.908;2023-04-03T04:56:59;20.58;;;14.48;;
45792;SDS011;31495;42.740;22.908;2023-04-03T04:57:58;19.55;;;13.23;;
45792;SDS011;31495;42.740;22.908;2023-04-03T04:58:58;16.55;;;12.52;;
45792;SDS011;31495;42.740;22.908;2023-04-03T04:59:57;18.08;;;13.05;;
45792;SDS011;31495;42.740;22.908;2023-04-03T05:01:04;18.85;;;13.05;;
45792;SDS011;31495;42.740;22.908;2023-04-03T05:02:05;27.20;;;14.10;;
45792;SDS011;31495;42.740;22.908;2023-04-03T05:03:04;24.17;;;14.75;;
45792;SDS011;31495;42.740;22.908;2023-04-03T05:04:03;21.98;;;16.00;;
45792;SDS011;31495;42.740;22.908;2023-04-03T05:05:03;49.50;;;27.85;;
45792;SDS011;31495;42.740;22.908;2023-04-03T05:06:03;262.85;;;138.02;;
45792;SDS011;31495;42.740;22.908;2023-04-03T05:07:03;111.15;;;65.30;;
45792;SDS011;31495;42.740;22.908;2023-04-03T05:08:04;109.45;;;68.13;;
45792;SDS011;31495;42.740;22.908;2023-04-03T05:09:03;70.82;;;43.63;;
45792;SDS011;31495;42.740;22.908;2023-04-03T05:10:03;57.85;;;33.97;;
45792;SDS011;31495;42.740;22.908;2023-04-03T05:11:02;41.13;;;27.17;;
45792;SDS011;31495;42.740;22.908;2023-04-03T05:12:02;43.63;;;28.33;;
45792;SDS011;31495;42.740;22.908;2023-04-03T05:13:02;40.22;;;24.83;;
45792;SDS011;31495;42.740;22.908;2023-04-03T05:14:01;29.60;;;15.70;;
45792;SDS011;31495;42.740;22.908;2023-04-03T05:15:01;27.60;;;17.83;;
45792;SDS011;31495;42.740;22.908;2023-04-03T05:16:00;29.98;;;20.83;;
45792;SDS011;31495;42.740;22.908;2023-04-03T05:17:00;29.65;;;15.88;;
45792;SDS011;31495;42.740;22.908;2023-04-03T05:17:59;22.58;;;14.48;;
45792;SDS011;31495;42.740;22.908;2023-04-03T05:18:59;35.22;;;16.45;;
45792;SDS011;31495;42.740;22.908;2023-04-03T05:19:58;25.98;;;14.68;;
45792;SDS011;31495;42.740;22.908;2023-04-03T05:20:57;24.85;;;14.02;;
45792;SDS011;31495;42.740;22.908;2023-04-03T05:21:58;32.70;;;18.55;;
45792;SDS011;31495;42.740;22.908;2023-04-03T05:22:57;35.95;;;24.00;;
45792;SDS011;31495;42.740;22.908;2023-04-03T05:23:57;29.27;;;17.42;;
45792;SDS011;31495;42.740;22.908;2023-04-03T05:25:03;31.02;;;17.00;;
45792;SDS011;31495;42.740;22.908;2023-04-03T05:26:04;47.17;;;27.30;;
45792;SDS011;31495;42.740;22.908;2023-04-03T05:27:03;73.57;;;40.65;;
45792;SDS011;31495;42.740;22.908;2023-04-03T05:28:03;84.97;;;45.70;;
45792;SDS011;31495;42.740;22.908;2023-04-03T05:29:02;82.75;;;47.20;;
45792;SDS011;31495;42.740;22.908;2023-04-03T05:30:02;76.13;;;42.17;;
45792;SDS011;31495;42.740;22.908;2023-04-03T05:31:03;83.28;;;44.17;;
45792;SDS011;31495;42.740;22.908;2023-04-03T05:32:02;74.00;;;41.30;;
45792;SDS011;31495;42.740;22.908;2023-04-03T05:33:02;77.55;;;43.90;;
45792;SDS011;31495;42.740;22.908;2023-04-03T05:34:02;84.03;;;42.28;;
45792;SDS011;31495;42.740;22.908;2023-04-03T05:35:02;90.07;;;46.63;;
45792;SDS011;31495;42.740;22.908;2023-04-03T05:36:04;84.63;;;46.45;;
45792;SDS011;31495;42.740;22.908;2023-04-03T05:37:04;59.85;;;35.00;;
45792;SDS011;31495;42.740;22.908;2023-04-03T05:38:04;49.95;;;27.20;;
45792;SDS011;31495;42.740;22.908;2023-04-03T05:39:04;37.65;;;20.48;;
45792;SDS011;31495;42.740;22.908;2023-04-03T05:40:04;28.70;;;17.00;;
45792;SDS011;31495;42.740;22.908;2023-04-03T05:41:04;17.50;;;11.65;;
45792;SDS011;31495;42.740;22.908;2023-04-03T05:42:04;26.38;;;16.20;;
45792;SDS011;31495;42.740;22.908;2023-04-03T05:43:04;29.33;;;18.15;;
45792;SDS011;31495;42.740;22.908;2023-04-03T05:44:04;29.65;;;16.83;;
45792;SDS011;31495;42.740;22.908;2023-04-03T05:45:03;30.55;;;16.33;;
45792;SDS011;31495;42.740;22.908;2023-04-03T05:46:04;28.05;;;15.82;;
45792;SDS011;31495;42.740;22.908;2023-04-03T05:47:09;33.35;;;16.52;;
45792;SDS011;31495;42.740;22.908;2023-04-03T05:48:08;28.60;;;15.93;;
45792;SDS011;31495;42.740;22.908;2023-04-03T05:49:07;27.63;;;15.75;;
45792;SDS011;31495;42.740;22.908;2023-04-03T05:50:07;31.25;;;18.42;;
45792;SDS011;31495;42.740;22.908;2023-04-03T05:51:07;50.63;;;27.23;;
45792;SDS011;31495;42.740;22.908;2023-04-03T05:52:26;46.22;;;24.45;;
45792;SDS011;31495;42.740;22.908;2023-04-03T05:53:28;53.90;;;28.73;;
45792;SDS011;31495;42.740;22.908;2023-04-03T05:54:30;45.08;;;24.42;;
45792;SDS011;31495;42.740;22.908;2023-04-03T05:55:30;41.17;;;22.58;;
45792;SDS011;31495;42.740;22.908;2023-04-03T05:56:29;37.45;;;23.08;;
45792;SDS011;31495;42.740;22.908;2023-04-03T05:57:28;47.17;;;23.90;;
45792;SDS011;31495;42.740;22.908;2023-04-03T05:58:28;41.95;;;22.73;;
45792;SDS011;31495;42.740;22.908;2023-04-03T05:59:28;32.67;;;20.77;;